sensor_id;sensor_type;location;lat;lon;timestamp;temperature;humidity
39219;DHT22;24934;52.752;6.964;2022-10-16T00:01:06;12.20;99.90
39219;DHT22;24934;52.752;6.964;2022-10-16T00:03:32;12.20;99.90
39219;DHT22;24934;52.752;6.964;2022-10-16T00:05:59;12.20;99.90
39219;DHT22;24934;52.752;6.964;2022-10-16T00:08:25;12.20;99.90
39219;DHT22;24934;52.752;6.964;2022-10-16T00:10:51;12.30;99.90
39219;DHT22;24934;52.752;6.964;2022-10-16T00:13:17;12.20;99.90
39219;DHT22;24934;52.752;6.964;2022-10-16T00:15:43;12.30;99.90
39219;DHT22;24934;52.752;6.964;2022-10-16T00:18:09;12.30;99.90
39219;DHT22;24934;52.752;6.964;2022-10-16T00:20:35;12.30;99.90
39219;DHT22;24934;52.752;6.964;2022-10-16T00:23:03;12.40;99.90
39219;DHT22;24934;52.752;6.964;2022-10-16T00:25:29;12.40;99.90
39219;DHT22;24934;52.752;6.964;2022-10-16T00:27:54;12.40;99.90
39219;DHT22;24934;52.752;6.964;2022-10-16T00:30:26;12.40;99.90
39219;DHT22;24934;52.752;6.964;2022-10-16T00:32:53;12.40;99.90
39219;DHT22;24934;52.752;6.964;2022-10-16T00:35:19;12.40;99.90
39219;DHT22;24934;52.752;6.964;2022-10-16T00:37:44;12.40;99.90
39219;DHT22;24934;52.752;6.964;2022-10-16T00:40:10;12.40;99.90
39219;DHT22;24934;52.752;6.964;2022-10-16T00:42:36;12.40;99.90
39219;DHT22;24934;52.752;6.964;2022-10-16T00:45:03;12.40;99.90
39219;DHT22;24934;52.752;6.964;2022-10-16T00:47:29;12.40;99.90
39219;DHT22;24934;52.752;6.964;2022-10-16T00:50:06;12.50;99.90
39219;DHT22;24934;52.752;6.964;2022-10-16T00:52:33;12.40;99.90
39219;DHT22;24934;52.752;6.964;2022-10-16T00:55:00;12.50;99.90
39219;DHT22;24934;52.752;6.964;2022-10-16T00:57:26;12.50;99.90
39219;DHT22;24934;52.752;6.964;2022-10-16T00:59:53;12.50;99.90
39219;DHT22;24934;52.752;6.964;2022-10-16T01:02:19;12.60;99.90
39219;DHT22;24934;52.752;6.964;2022-10-16T01:04:48;12.60;99.90
39219;DHT22;24934;52.752;6.964;2022-10-16T01:12:50;12.60;99.90
39219;DHT22;24934;52.752;6.964;2022-10-16T01:15:18;12.60;99.90
39219;DHT22;24934;52.752;6.964;2022-10-16T01:20:47;12.60;99.90
39219;DHT22;24934;52.752;6.964;2022-10-16T01:29:06;12.60;99.90
39219;DHT22;24934;52.752;6.964;2022-10-16T01:31:36;12.60;99.90
39219;DHT22;24934;52.752;6.964;2022-10-16T01:34:10;12.60;99.90
39219;DHT22;24934;52.752;6.964;2022-10-16T01:36:45;12.60;99.90
39219;DHT22;24934;52.752;6.964;2022-10-16T01:39:11;12.60;99.90
39219;DHT22;24934;52.752;6.964;2022-10-16T01:41:44;12.60;99.90
39219;DHT22;24934;52.752;6.964;2022-10-16T01:44:19;12.60;99.90
39219;DHT22;24934;52.752;6.964;2022-10-16T01:46:48;12.60;99.90
39219;DHT22;24934;52.752;6.964;2022-10-16T01:49:16;12.60;99.90
39219;DHT22;24934;52.752;6.964;2022-10-16T01:51:45;12.50;99.90
39219;DHT22;24934;52.752;6.964;2022-10-16T01:54:13;12.50;99.90
39219;DHT22;24934;52.752;6.964;2022-10-16T01:56:41;12.50;99.90
39219;DHT22;24934;52.752;6.964;2022-10-16T01:59:13;12.40;99.90
39219;DHT22;24934;52.752;6.964;2022-10-16T02:01:44;12.40;99.90
39219;DHT22;24934;52.752;6.964;2022-10-16T02:04:18;12.30;99.90
39219;DHT22;24934;52.752;6.964;2022-10-16T02:06:44;12.20;99.90
39219;DHT22;24934;52.752;6.964;2022-10-16T02:09:10;12.20;99.90
39219;DHT22;24934;52.752;6.964;2022-10-16T02:11:36;12.20;99.90
39219;DHT22;24934;52.752;6.964;2022-10-16T02:14:04;12.20;99.90
39219;DHT22;24934;52.752;6.964;2022-10-16T02:16:35;12.20;99.90
39219;DHT22;24934;52.752;6.964;2022-10-16T02:19:02;12.20;99.90
39219;DHT22;24934;52.752;6.964;2022-10-16T02:21:48;12.20;99.90
39219;DHT22;24934;52.752;6.964;2022-10-16T02:30:14;12.20;99.90
39219;DHT22;24934;52.752;6.964;2022-10-16T02:32:42;12.20;99.90
39219;DHT22;24934;52.752;6.964;2022-10-16T02:35:10;12.20;99.90
39219;DHT22;24934;52.752;6.964;2022-10-16T02:37:40;12.20;99.90
39219;DHT22;24934;52.752;6.964;2022-10-16T02:40:07;12.20;99.90
39219;DHT22;24934;52.752;6.964;2022-10-16T02:42:34;12.20;99.90
39219;DHT22;24934;52.752;6.964;2022-10-16T02:45:01;12.20;99.90
39219;DHT22;24934;52.752;6.964;2022-10-16T02:47:27;12.30;99.90
39219;DHT22;24934;52.752;6.964;2022-10-16T02:49:53;12.30;99.90
39219;DHT22;24934;52.752;6.964;2022-10-16T02:52:18;12.30;99.90
39219;DHT22;24934;52.752;6.964;2022-10-16T02:54:44;12.30;99.90
39219;DHT22;24934;52.752;6.964;2022-10-16T02:57:09;12.30;99.90
39219;DHT22;24934;52.752;6.964;2022-10-16T02:59:35;12.40;99.90
39219;DHT22;24934;52.752;6.964;2022-10-16T03:02:01;12.40;99.90
39219;DHT22;24934;52.752;6.964;2022-10-16T03:04:26;12.40;99.90
39219;DHT22;24934;52.752;6.964;2022-10-16T03:06:52;12.50;99.90
39219;DHT22;24934;52.752;6.964;2022-10-16T03:09:17;12.50;99.90
39219;DHT22;24934;52.752;6.964;2022-10-16T03:11:43;12.60;99.90
39219;DHT22;24934;52.752;6.964;2022-10-16T03:14:08;12.60;99.90
39219;DHT22;24934;52.752;6.964;2022-10-16T03:16:34;12.60;99.90
39219;DHT22;24934;52.752;6.964;2022-10-16T03:19:00;12.70;99.90
39219;DHT22;24934;52.752;6.964;2022-10-16T03:21:26;12.70;99.90
39219;DHT22;24934;52.752;6.964;2022-10-16T03:23:51;12.70;99.90
39219;DHT22;24934;52.752;6.964;2022-10-16T03:26:17;12.80;99.90
39219;DHT22;24934;52.752;6.964;2022-10-16T03:28:43;12.80;99.90
39219;DHT22;24934;52.752;6.964;2022-10-16T03:31:11;12.80;99.90
39219;DHT22;24934;52.752;6.964;2022-10-16T03:33:37;12.80;99.90
39219;DHT22;24934;52.752;6.964;2022-10-16T03:36:02;12.80;99.90
39219;DHT22;24934;52.752;6.964;2022-10-16T03:38:28;12.90;99.90
39219;DHT22;24934;52.752;6.964;2022-10-16T03:40:54;12.90;99.90
39219;DHT22;24934;52.752;6.964;2022-10-16T03:43:19;12.90;99.90
39219;DHT22;24934;52.752;6.964;2022-10-16T03:45:45;12.90;99.90
39219;DHT22;24934;52.752;6.964;2022-10-16T03:48:11;12.90;99.90
39219;DHT22;24934;52.752;6.964;2022-10-16T03:50:36;12.90;99.90
39219;DHT22;24934;52.752;6.964;2022-10-16T03:53:03;12.90;99.90
39219;DHT22;24934;52.752;6.964;2022-10-16T03:55:29;12.90;99.90
39219;DHT22;24934;52.752;6.964;2022-10-16T03:57:54;12.90;99.90
39219;DHT22;24934;52.752;6.964;2022-10-16T04:00:20;12.80;99.90
39219;DHT22;24934;52.752;6.964;2022-10-16T04:02:46;12.80;99.90
39219;DHT22;24934;52.752;6.964;2022-10-16T04:05:11;12.70;99.90
39219;DHT22;24934;52.752;6.964;2022-10-16T04:07:37;12.80;99.90
39219;DHT22;24934;52.752;6.964;2022-10-16T04:10:03;12.70;99.90
39219;DHT22;24934;52.752;6.964;2022-10-16T04:12:32;12.70;99.90
39219;DHT22;24934;52.752;6.964;2022-10-16T04:14:57;12.70;99.90
39219;DHT22;24934;52.752;6.964;2022-10-16T04:17:26;12.70;99.90
39219;DHT22;24934;52.752;6.964;2022-10-16T04:19:51;12.70;99.90
39219;DHT22;24934;52.752;6.964;2022-10-16T04:22:17;12.70;99.90
39219;DHT22;24934;52.752;6.964;2022-10-16T04:24:42;12.80;99.90
39219;DHT22;24934;52.752;6.964;2022-10-16T04:27:08;12.80;99.90
39219;DHT22;24934;52.752;6.964;2022-10-16T04:29:33;12.80;99.90
39219;DHT22;24934;52.752;6.964;2022-10-16T04:31:59;12.80;99.90
39219;DHT22;24934;52.752;6.964;2022-10-16T04:34:25;12.70;99.90
39219;DHT22;24934;52.752;6.964;2022-10-16T04:36:50;12.70;99.90
39219;DHT22;24934;52.752;6.964;2022-10-16T04:39:16;12.70;99.90
39219;DHT22;24934;52.752;6.964;2022-10-16T04:41:42;12.70;99.90
39219;DHT22;24934;52.752;6.964;2022-10-16T04:44:07;12.60;99.90
39219;DHT22;24934;52.752;6.964;2022-10-16T04:46:33;12.60;99.90
39219;DHT22;24934;52.752;6.964;2022-10-16T04:48:59;12.60;99.90
39219;DHT22;24934;52.752;6.964;2022-10-16T04:51:27;12.60;99.90
39219;DHT22;24934;52.752;6.964;2022-10-16T04:53:54;12.60;99.90
39219;DHT22;24934;52.752;6.964;2022-10-16T04:56:20;12.60;99.90
39219;DHT22;24934;52.752;6.964;2022-10-16T04:58:47;12.60;99.90
39219;DHT22;24934;52.752;6.964;2022-10-16T05:01:13;12.60;99.90
39219;DHT22;24934;52.752;6.964;2022-10-16T05:03:39;12.60;99.90
39219;DHT22;24934;52.752;6.964;2022-10-16T05:06:07;12.60;99.90
39219;DHT22;24934;52.752;6.964;2022-10-16T05:08:33;12.60;99.90
39219;DHT22;24934;52.752;6.964;2022-10-16T05:10:59;12.50;99.90
39219;DHT22;24934;52.752;6.964;2022-10-16T05:13:25;12.50;99.90
39219;DHT22;24934;52.752;6.964;2022-10-16T05:15:51;12.50;99.90
39219;DHT22;24934;52.752;6.964;2022-10-16T05:18:16;12.50;99.90
39219;DHT22;24934;52.752;6.964;2022-10-16T05:20:42;12.60;99.90
39219;DHT22;24934;52.752;6.964;2022-10-16T05:23:08;12.60;99.90
39219;DHT22;24934;52.752;6.964;2022-10-16T05:25:36;12.60;99.90
39219;DHT22;24934;52.752;6.964;2022-10-16T05:28:01;12.60;99.90
39219;DHT22;24934;52.752;6.964;2022-10-16T05:30:27;12.50;99.90
39219;DHT22;24934;52.752;6.964;2022-10-16T05:32:53;12.50;99.90
39219;DHT22;24934;52.752;6.964;2022-10-16T05:35:21;12.40;99.90
39219;DHT22;24934;52.752;6.964;2022-10-16T05:37:47;12.40;99.90
39219;DHT22;24934;52.752;6.964;2022-10-16T05:40:13;12.40;99.90
39219;DHT22;24934;52.752;6.964;2022-10-16T05:42:40;12.30;99.90
39219;DHT22;24934;52.752;6.964;2022-10-16T05:45:06;12.30;99.90
39219;DHT22;24934;52.752;6.964;2022-10-16T05:47:32;12.30;99.90
39219;DHT22;24934;52.752;6.964;2022-10-16T05:49:58;12.40;99.90
39219;DHT22;24934;52.752;6.964;2022-10-16T05:52:24;12.30;99.90
39219;DHT22;24934;52.752;6.964;2022-10-16T05:54:49;12.40;99.90
39219;DHT22;24934;52.752;6.964;2022-10-16T05:57:15;12.40;99.90
39219;DHT22;24934;52.752;6.964;2022-10-16T05:59:41;12.40;99.90
39219;DHT22;24934;52.752;6.964;2022-10-16T06:02:11;12.40;99.90
39219;DHT22;24934;52.752;6.964;2022-10-16T06:04:37;12.40;99.90
39219;DHT22;24934;52.752;6.964;2022-10-16T06:07:03;12.40;99.90
39219;DHT22;24934;52.752;6.964;2022-10-16T06:09:28;12.40;99.90
39219;DHT22;24934;52.752;6.964;2022-10-16T06:11:54;12.40;99.90
39219;DHT22;24934;52.752;6.964;2022-10-16T06:14:22;12.50;99.90
39219;DHT22;24934;52.752;6.964;2022-10-16T06:16:50;12.40;99.90
39219;DHT22;24934;52.752;6.964;2022-10-16T06:19:16;12.40;99.90
39219;DHT22;24934;52.752;6.964;2022-10-16T06:21:42;12.50;99.90
39219;DHT22;24934;52.752;6.964;2022-10-16T06:24:09;12.50;99.90
39219;DHT22;24934;52.752;6.964;2022-10-16T06:26:35;12.50;99.90
39219;DHT22;24934;52.752;6.964;2022-10-16T06:29:00;12.50;99.90
39219;DHT22;24934;52.752;6.964;2022-10-16T06:31:27;12.50;99.90
39219;DHT22;24934;52.752;6.964;2022-10-16T06:33:56;12.50;99.90
39219;DHT22;24934;52.752;6.964;2022-10-16T06:36:22;12.50;99.90
39219;DHT22;24934;52.752;6.964;2022-10-16T06:38:48;12.50;99.90
39219;DHT22;24934;52.752;6.964;2022-10-16T06:41:19;12.60;99.90
39219;DHT22;24934;52.752;6.964;2022-10-16T06:43:45;12.60;99.90
39219;DHT22;24934;52.752;6.964;2022-10-16T06:46:20;12.60;99.90
39219;DHT22;24934;52.752;6.964;2022-10-16T06:48:49;12.60;99.90
39219;DHT22;24934;52.752;6.964;2022-10-16T06:51:17;12.70;99.90
39219;DHT22;24934;52.752;6.964;2022-10-16T06:53:45;12.70;99.90
39219;DHT22;24934;52.752;6.964;2022-10-16T06:56:14;12.70;99.90
39219;DHT22;24934;52.752;6.964;2022-10-16T06:58:40;12.80;99.90
39219;DHT22;24934;52.752;6.964;2022-10-16T07:01:06;12.80;99.90
39219;DHT22;24934;52.752;6.964;2022-10-16T07:03:32;12.80;99.90
39219;DHT22;24934;52.752;6.964;2022-10-16T07:06:02;12.90;99.90
39219;DHT22;24934;52.752;6.964;2022-10-16T07:08:34;12.90;99.90
39219;DHT22;24934;52.752;6.964;2022-10-16T07:11:01;12.90;99.90
39219;DHT22;24934;52.752;6.964;2022-10-16T07:13:28;12.90;99.90
39219;DHT22;24934;52.752;6.964;2022-10-16T07:15:54;13.10;99.90
39219;DHT22;24934;52.752;6.964;2022-10-16T07:18:19;13.80;99.90
39219;DHT22;24934;52.752;6.964;2022-10-16T07:20:45;14.70;99.90
39219;DHT22;24934;52.752;6.964;2022-10-16T07:23:10;15.10;99.90
39219;DHT22;24934;52.752;6.964;2022-10-16T07:25:36;15.10;99.90
39219;DHT22;24934;52.752;6.964;2022-10-16T07:28:02;14.80;99.90
39219;DHT22;24934;52.752;6.964;2022-10-16T07:30:27;14.80;99.90
39219;DHT22;24934;52.752;6.964;2022-10-16T07:32:53;14.90;99.90
39219;DHT22;24934;52.752;6.964;2022-10-16T07:35:18;15.00;99.90
39219;DHT22;24934;52.752;6.964;2022-10-16T07:37:45;15.10;99.90
39219;DHT22;24934;52.752;6.964;2022-10-16T07:40:11;14.70;99.90
39219;DHT22;24934;52.752;6.964;2022-10-16T07:42:37;14.50;99.90
39219;DHT22;24934;52.752;6.964;2022-10-16T07:45:03;14.20;99.90
39219;DHT22;24934;52.752;6.964;2022-10-16T07:47:28;14.20;99.90
39219;DHT22;24934;52.752;6.964;2022-10-16T07:49:54;14.60;99.90
39219;DHT22;24934;52.752;6.964;2022-10-16T07:52:19;14.90;99.90
39219;DHT22;24934;52.752;6.964;2022-10-16T07:54:45;14.90;99.90
39219;DHT22;24934;52.752;6.964;2022-10-16T07:57:11;14.90;99.90
39219;DHT22;24934;52.752;6.964;2022-10-16T07:59:36;14.70;99.90
39219;DHT22;24934;52.752;6.964;2022-10-16T08:02:02;14.50;99.90
39219;DHT22;24934;52.752;6.964;2022-10-16T08:04:28;14.40;99.90
39219;DHT22;24934;52.752;6.964;2022-10-16T08:06:53;14.30;99.90
39219;DHT22;24934;52.752;6.964;2022-10-16T08:09:20;14.10;99.90
39219;DHT22;24934;52.752;6.964;2022-10-16T08:11:45;14.00;99.90
39219;DHT22;24934;52.752;6.964;2022-10-16T08:14:11;13.90;99.90
39219;DHT22;24934;52.752;6.964;2022-10-16T08:16:36;13.80;99.90
39219;DHT22;24934;52.752;6.964;2022-10-16T08:19:02;13.80;99.90
39219;DHT22;24934;52.752;6.964;2022-10-16T08:21:27;13.90;99.90
39219;DHT22;24934;52.752;6.964;2022-10-16T08:23:53;14.00;99.90
39219;DHT22;24934;52.752;6.964;2022-10-16T08:26:20;14.00;99.90
39219;DHT22;24934;52.752;6.964;2022-10-16T08:28:49;14.10;99.90
39219;DHT22;24934;52.752;6.964;2022-10-16T08:31:15;14.30;99.90
39219;DHT22;24934;52.752;6.964;2022-10-16T08:33:43;14.40;99.90
39219;DHT22;24934;52.752;6.964;2022-10-16T08:36:11;14.40;99.90
39219;DHT22;24934;52.752;6.964;2022-10-16T08:38:37;14.40;99.90
39219;DHT22;24934;52.752;6.964;2022-10-16T08:49:43;14.80;99.90
39219;DHT22;24934;52.752;6.964;2022-10-16T08:52:13;14.90;99.90
39219;DHT22;24934;52.752;6.964;2022-10-16T08:54:43;15.00;99.90
39219;DHT22;24934;52.752;6.964;2022-10-16T08:57:21;15.00;99.90
39219;DHT22;24934;52.752;6.964;2022-10-16T08:59:47;15.00;99.90
39219;DHT22;24934;52.752;6.964;2022-10-16T09:02:36;15.30;99.90
39219;DHT22;24934;52.752;6.964;2022-10-16T09:07:58;15.60;99.90
39219;DHT22;24934;52.752;6.964;2022-10-16T09:18:44;17.10;99.90
39219;DHT22;24934;52.752;6.964;2022-10-16T09:21:26;17.60;99.90
39219;DHT22;24934;52.752;6.964;2022-10-16T09:23:58;18.00;99.90
39219;DHT22;24934;52.752;6.964;2022-10-16T09:26:24;18.50;99.90
39219;DHT22;24934;52.752;6.964;2022-10-16T09:28:52;19.00;99.90
39219;DHT22;24934;52.752;6.964;2022-10-16T09:31:20;18.80;99.90
39219;DHT22;24934;52.752;6.964;2022-10-16T09:33:53;19.00;99.90
39219;DHT22;24934;52.752;6.964;2022-10-16T09:36:21;19.50;99.90
39219;DHT22;24934;52.752;6.964;2022-10-16T09:39:05;19.70;99.90
39219;DHT22;24934;52.752;6.964;2022-10-16T09:41:34;19.60;99.90
39219;DHT22;24934;52.752;6.964;2022-10-16T09:44:06;20.20;99.90
39219;DHT22;24934;52.752;6.964;2022-10-16T09:46:39;20.20;99.90
39219;DHT22;24934;52.752;6.964;2022-10-16T09:49:26;20.10;99.90
39219;DHT22;24934;52.752;6.964;2022-10-16T09:52:10;20.50;99.90
39219;DHT22;24934;52.752;6.964;2022-10-16T09:54:36;20.70;99.90
39219;DHT22;24934;52.752;6.964;2022-10-16T09:57:12;20.20;99.90
39219;DHT22;24934;52.752;6.964;2022-10-16T09:59:46;20.20;99.90
39219;DHT22;24934;52.752;6.964;2022-10-16T10:02:13;20.10;99.90
39219;DHT22;24934;52.752;6.964;2022-10-16T10:04:44;20.20;99.90
39219;DHT22;24934;52.752;6.964;2022-10-16T10:07:20;20.30;99.90
39219;DHT22;24934;52.752;6.964;2022-10-16T10:09:50;20.10;99.90
39219;DHT22;24934;52.752;6.964;2022-10-16T10:12:24;20.10;99.90
39219;DHT22;24934;52.752;6.964;2022-10-16T10:14:52;19.90;99.90
39219;DHT22;24934;52.752;6.964;2022-10-16T10:17:26;20.10;99.90
39219;DHT22;24934;52.752;6.964;2022-10-16T10:33:11;20.60;99.90
39219;DHT22;24934;52.752;6.964;2022-10-16T10:38:57;20.10;99.90
39219;DHT22;24934;52.752;6.964;2022-10-16T10:55:20;20.80;99.90
39219;DHT22;24934;52.752;6.964;2022-10-16T11:00:40;20.40;99.90
39219;DHT22;24934;52.752;6.964;2022-10-16T11:06:26;19.40;99.90
39219;DHT22;24934;52.752;6.964;2022-10-16T11:09:12;19.10;99.90
39219;DHT22;24934;52.752;6.964;2022-10-16T11:12:06;19.30;99.90
39219;DHT22;24934;52.752;6.964;2022-10-16T11:14:56;19.10;99.90
39219;DHT22;24934;52.752;6.964;2022-10-16T11:17:39;19.00;99.90
39219;DHT22;24934;52.752;6.964;2022-10-16T11:22:56;19.30;99.90
39219;DHT22;24934;52.752;6.964;2022-10-16T11:25:32;19.70;99.90
39219;DHT22;24934;52.752;6.964;2022-10-16T11:28:02;19.70;99.90
39219;DHT22;24934;52.752;6.964;2022-10-16T11:30:31;19.50;99.90
39219;DHT22;24934;52.752;6.964;2022-10-16T11:35:54;19.10;99.90
39219;DHT22;24934;52.752;6.964;2022-10-16T11:41:22;18.40;99.90
39219;DHT22;24934;52.752;6.964;2022-10-16T11:46:41;18.10;99.90
39219;DHT22;24934;52.752;6.964;2022-10-16T11:49:21;18.10;99.90
39219;DHT22;24934;52.752;6.964;2022-10-16T11:54:39;19.10;99.90
39219;DHT22;24934;52.752;6.964;2022-10-16T11:57:23;19.60;99.90
39219;DHT22;24934;52.752;6.964;2022-10-16T11:59:57;19.60;99.90
39219;DHT22;24934;52.752;6.964;2022-10-16T12:05:24;19.20;99.90
39219;DHT22;24934;52.752;6.964;2022-10-16T12:08:01;19.20;99.90
39219;DHT22;24934;52.752;6.964;2022-10-16T12:10:29;19.10;99.90
39219;DHT22;24934;52.752;6.964;2022-10-16T12:12:57;19.30;99.90
39219;DHT22;24934;52.752;6.964;2022-10-16T12:15:28;19.20;99.90
39219;DHT22;24934;52.752;6.964;2022-10-16T12:17:54;19.00;99.90
39219;DHT22;24934;52.752;6.964;2022-10-16T12:20:31;18.60;99.90
39219;DHT22;24934;52.752;6.964;2022-10-16T12:23:05;18.20;99.90
39219;DHT22;24934;52.752;6.964;2022-10-16T12:25:36;17.90;99.90
39219;DHT22;24934;52.752;6.964;2022-10-16T12:28:19;18.00;99.90
39219;DHT22;24934;52.752;6.964;2022-10-16T12:31:00;18.20;99.90
39219;DHT22;24934;52.752;6.964;2022-10-16T12:33:29;18.80;99.90
39219;DHT22;24934;52.752;6.964;2022-10-16T12:35:56;19.00;99.90
39219;DHT22;24934;52.752;6.964;2022-10-16T12:41:10;19.30;99.90
39219;DHT22;24934;52.752;6.964;2022-10-16T12:43:39;19.20;99.90
39219;DHT22;24934;52.752;6.964;2022-10-16T12:48:33;19.00;99.90
39219;DHT22;24934;52.752;6.964;2022-10-16T12:51:11;19.00;99.90
39219;DHT22;24934;52.752;6.964;2022-10-16T12:53:43;19.00;99.90
39219;DHT22;24934;52.752;6.964;2022-10-16T13:01:37;18.70;99.90
39219;DHT22;24934;52.752;6.964;2022-10-16T13:04:20;18.50;99.90
39219;DHT22;24934;52.752;6.964;2022-10-16T13:07:23;18.30;99.90
39219;DHT22;24934;52.752;6.964;2022-10-16T13:10:02;18.50;99.90
39219;DHT22;24934;52.752;6.964;2022-10-16T13:17:55;18.80;99.90
39219;DHT22;24934;52.752;6.964;2022-10-16T13:26:53;20.10;99.90
39219;DHT22;24934;52.752;6.964;2022-10-16T13:29:21;20.10;99.90
39219;DHT22;24934;52.752;6.964;2022-10-16T13:31:47;20.10;99.90
39219;DHT22;24934;52.752;6.964;2022-10-16T13:34:16;20.20;99.90
39219;DHT22;24934;52.752;6.964;2022-10-16T13:36:45;20.20;99.90
39219;DHT22;24934;52.752;6.964;2022-10-16T13:42:05;20.30;99.90
39219;DHT22;24934;52.752;6.964;2022-10-16T13:44:53;20.20;99.90
39219;DHT22;24934;52.752;6.964;2022-10-16T13:47:27;20.20;99.90
39219;DHT22;24934;52.752;6.964;2022-10-16T13:50:11;20.20;99.90
39219;DHT22;24934;52.752;6.964;2022-10-16T13:52:37;20.20;99.90
39219;DHT22;24934;52.752;6.964;2022-10-16T13:55:17;20.40;99.90
39219;DHT22;24934;52.752;6.964;2022-10-16T13:57:43;20.20;99.90
39219;DHT22;24934;52.752;6.964;2022-10-16T14:00:24;20.30;99.90
39219;DHT22;24934;52.752;6.964;2022-10-16T14:02:58;20.20;99.90
39219;DHT22;24934;52.752;6.964;2022-10-16T14:05:26;20.00;99.90
39219;DHT22;24934;52.752;6.964;2022-10-16T14:07:53;20.10;99.90
39219;DHT22;24934;52.752;6.964;2022-10-16T14:10:28;20.20;99.90
39219;DHT22;24934;52.752;6.964;2022-10-16T14:13:03;19.90;99.90
39219;DHT22;24934;52.752;6.964;2022-10-16T14:15:31;19.90;99.90
39219;DHT22;24934;52.752;6.964;2022-10-16T14:17:58;19.80;99.90
39219;DHT22;24934;52.752;6.964;2022-10-16T14:20:33;19.80;99.90
39219;DHT22;24934;52.752;6.964;2022-10-16T14:23:21;19.70;99.90
39219;DHT22;24934;52.752;6.964;2022-10-16T14:25:47;19.50;99.90
39219;DHT22;24934;52.752;6.964;2022-10-16T14:30:55;19.00;99.90
39219;DHT22;24934;52.752;6.964;2022-10-16T14:33:32;19.00;99.90
39219;DHT22;24934;52.752;6.964;2022-10-16T14:38:38;19.20;99.90
39219;DHT22;24934;52.752;6.964;2022-10-16T14:41:05;19.40;99.90
39219;DHT22;24934;52.752;6.964;2022-10-16T14:43:44;19.50;99.90
39219;DHT22;24934;52.752;6.964;2022-10-16T14:46:15;19.50;99.90
39219;DHT22;24934;52.752;6.964;2022-10-16T14:48:47;19.40;99.90
39219;DHT22;24934;52.752;6.964;2022-10-16T14:51:15;19.50;99.90
39219;DHT22;24934;52.752;6.964;2022-10-16T14:53:40;19.50;99.90
39219;DHT22;24934;52.752;6.964;2022-10-16T14:56:18;19.30;99.90
39219;DHT22;24934;52.752;6.964;2022-10-16T14:58:44;19.20;99.90
39219;DHT22;24934;52.752;6.964;2022-10-16T15:01:10;19.20;99.90
39219;DHT22;24934;52.752;6.964;2022-10-16T15:03:37;19.10;99.90
39219;DHT22;24934;52.752;6.964;2022-10-16T15:06:03;19.00;99.90
39219;DHT22;24934;52.752;6.964;2022-10-16T15:08:29;18.80;99.90
39219;DHT22;24934;52.752;6.964;2022-10-16T15:10:55;18.70;99.90
39219;DHT22;24934;52.752;6.964;2022-10-16T15:13:20;18.50;99.90
39219;DHT22;24934;52.752;6.964;2022-10-16T15:15:47;18.40;99.90
39219;DHT22;24934;52.752;6.964;2022-10-16T15:18:17;18.30;99.90
39219;DHT22;24934;52.752;6.964;2022-10-16T15:20:48;18.20;99.90
39219;DHT22;24934;52.752;6.964;2022-10-16T15:23:20;18.10;99.90
39219;DHT22;24934;52.752;6.964;2022-10-16T15:25:48;18.00;99.90
39219;DHT22;24934;52.752;6.964;2022-10-16T15:28:15;17.80;99.90
39219;DHT22;24934;52.752;6.964;2022-10-16T15:30:42;17.70;99.90
39219;DHT22;24934;52.752;6.964;2022-10-16T15:33:14;17.50;99.90
39219;DHT22;24934;52.752;6.964;2022-10-16T15:35:40;17.40;99.90
39219;DHT22;24934;52.752;6.964;2022-10-16T15:38:05;17.30;99.90
39219;DHT22;24934;52.752;6.964;2022-10-16T15:40:31;17.20;99.90
39219;DHT22;24934;52.752;6.964;2022-10-16T15:42:56;17.10;99.90
39219;DHT22;24934;52.752;6.964;2022-10-16T15:45:22;17.00;99.90
39219;DHT22;24934;52.752;6.964;2022-10-16T15:47:48;16.90;99.90
39219;DHT22;24934;52.752;6.964;2022-10-16T15:50:14;16.80;99.90
39219;DHT22;24934;52.752;6.964;2022-10-16T15:52:40;16.70;99.90
39219;DHT22;24934;52.752;6.964;2022-10-16T15:55:08;16.60;99.90
39219;DHT22;24934;52.752;6.964;2022-10-16T15:57:34;16.50;99.90
39219;DHT22;24934;52.752;6.964;2022-10-16T15:59:59;16.40;99.90
39219;DHT22;24934;52.752;6.964;2022-10-16T16:02:25;16.30;99.90
39219;DHT22;24934;52.752;6.964;2022-10-16T16:04:50;16.10;99.90
39219;DHT22;24934;52.752;6.964;2022-10-16T16:07:19;15.90;99.90
39219;DHT22;24934;52.752;6.964;2022-10-16T16:09:44;15.80;99.90
39219;DHT22;24934;52.752;6.964;2022-10-16T16:12:10;15.60;99.90
39219;DHT22;24934;52.752;6.964;2022-10-16T16:14:36;15.50;99.90
39219;DHT22;24934;52.752;6.964;2022-10-16T16:17:01;15.40;99.90
39219;DHT22;24934;52.752;6.964;2022-10-16T16:19:27;15.20;99.90
39219;DHT22;24934;52.752;6.964;2022-10-16T16:21:53;15.10;99.90
39219;DHT22;24934;52.752;6.964;2022-10-16T16:24:18;14.90;99.90
39219;DHT22;24934;52.752;6.964;2022-10-16T16:26:44;14.70;99.90
39219;DHT22;24934;52.752;6.964;2022-10-16T16:29:14;14.60;99.90
39219;DHT22;24934;52.752;6.964;2022-10-16T16:31:41;14.50;99.90
39219;DHT22;24934;52.752;6.964;2022-10-16T16:34:06;14.30;99.90
39219;DHT22;24934;52.752;6.964;2022-10-16T16:36:33;14.10;99.90
39219;DHT22;24934;52.752;6.964;2022-10-16T16:38:59;14.10;99.90
39219;DHT22;24934;52.752;6.964;2022-10-16T16:41:27;13.90;99.90
39219;DHT22;24934;52.752;6.964;2022-10-16T16:43:54;13.80;99.90
39219;DHT22;24934;52.752;6.964;2022-10-16T16:46:22;13.70;99.90
39219;DHT22;24934;52.752;6.964;2022-10-16T16:48:48;13.70;99.90
39219;DHT22;24934;52.752;6.964;2022-10-16T16:51:21;13.60;99.90
39219;DHT22;24934;52.752;6.964;2022-10-16T16:53:49;13.60;99.90
39219;DHT22;24934;52.752;6.964;2022-10-16T16:56:16;13.50;99.90
39219;DHT22;24934;52.752;6.964;2022-10-16T16:58:45;13.50;99.90
39219;DHT22;24934;52.752;6.964;2022-10-16T17:01:11;13.40;99.90
39219;DHT22;24934;52.752;6.964;2022-10-16T17:03:37;13.40;99.90
39219;DHT22;24934;52.752;6.964;2022-10-16T17:06:07;13.30;99.90
39219;DHT22;24934;52.752;6.964;2022-10-16T17:08:36;13.30;99.90
39219;DHT22;24934;52.752;6.964;2022-10-16T17:11:03;13.20;99.90
39219;DHT22;24934;52.752;6.964;2022-10-16T17:13:32;13.10;99.90
39219;DHT22;24934;52.752;6.964;2022-10-16T17:16:00;13.00;99.90
39219;DHT22;24934;52.752;6.964;2022-10-16T17:18:26;12.90;99.90
39219;DHT22;24934;52.752;6.964;2022-10-16T17:20:52;12.80;99.90
39219;DHT22;24934;52.752;6.964;2022-10-16T17:23:19;12.80;99.90
39219;DHT22;24934;52.752;6.964;2022-10-16T17:25:45;12.70;99.90
39219;DHT22;24934;52.752;6.964;2022-10-16T17:28:13;12.60;99.90
39219;DHT22;24934;52.752;6.964;2022-10-16T17:30:40;12.50;99.90
39219;DHT22;24934;52.752;6.964;2022-10-16T17:33:06;12.50;99.90
39219;DHT22;24934;52.752;6.964;2022-10-16T17:35:40;12.40;99.90
39219;DHT22;24934;52.752;6.964;2022-10-16T17:38:06;12.30;99.90
39219;DHT22;24934;52.752;6.964;2022-10-16T17:40:32;12.30;99.90
39219;DHT22;24934;52.752;6.964;2022-10-16T17:42:58;12.10;99.90